M I D A S
Marine Information and Data Acquisition System
Tripno 841 of the Zeeleeuw from 2005-01-25 07:31:36 to 2005-01-25 16:34:44
Back to CruiseResearch ActivitiesStationsMapUnderway DataData graphs

EquipmentUnitsComment
TimeDGPSUTC
LatitudeDGPSDM.mWGS84
LongitudeDGPSDM.mWGS84
TemperatureSBE03/SBE38deg celciusITS90
ConductivitySBE21S/mITS90
SalinitySBE21 Practical Salinity Units
ChlorophylAChelsea fluorimeterg/lCalibrated in Aceton
Missing or incorrect values are displayed as -999
Sea surface data collected by the RV Zeeleeuw from 2005-01-25 07:32:50 to 2005-01-25 16:45:10
Time Latitude Longitude Temperature Conductivity Salinity ChlorophylA
2005-01-25 07:33:56 51°13.611 2°56.043 6.5212 2.695474 25.452637 1.949212
2005-01-25 07:34:56 51°13.641 2°55.957 6.1149 2.744616 26.762169 2.050341
2005-01-25 07:35:56 51°13.683 2°55.862 5.9551 2.786075 27.481705 1.881794
2005-01-25 07:36:56 51°13.712 2°55.752 5.8228 2.802176 27.79081 2.050341
2005-01-25 07:37:56 51°13.723 2°55.734 5.794 2.759562 27.406433 2.387435
2005-01-25 07:38:56 51°13.715 2°55.723 5.7591 2.608494 25.783593 2.589691
2005-01-25 07:39:56 51°13.78 2°55.674 5.7709 2.670662 26.476193 2.589691
2005-01-25 07:40:56 51°13.898 2°55.576 5.7541 2.547596 25.137806 2.825657
2005-01-25 07:41:56 51°14.03 2°55.479 5.7411 2.716636 26.992521 2.589691
2005-01-25 07:42:56 51°14.165 2°55.381 5.7598 2.783447 27.737042 2.724529
2005-01-25 07:43:56 51°14.274 2°55.224 5.7646 2.776924 27.651321 1.848084
2005-01-25 07:44:56 51°14.386 2°55.019 5.7263 2.77787 27.656058 1.5447
2005-01-25 07:45:56 51°14.52 2°54.8 5.5178 2.870685 28.803329 2.050341
2005-01-25 07:46:56 51°14.69 2°54.676 5.5916 3.026676 30.62774 2.353725
2005-01-25 07:47:56 51°14.865 2°54.575 5.656 3.095631 31.304947 2.421144
2005-01-25 07:48:56 51°15.04 2°54.483 5.6723 3.101527 31.347563 3.129042
2005-01-25 07:49:56 51°15.215 2°54.396 5.6421 3.11732 31.509634 3.095332
2005-01-25 07:50:56 51°15.389 2°54.307 5.6674 3.118057 31.533237 3.76952
2005-01-25 07:51:55 51°15.563 2°54.222 5.6654 3.099316 31.320437 3.600973
2005-01-25 07:52:56 51°15.739 2°54.14 5.6868 3.094578 31.258669 3.634683
2005-01-25 07:53:56 51°15.913 2°54.101 5.6927 3.125637 31.586469 2.185178
2005-01-25 07:54:56 51°16.078 2°54.165 5.6732 3.131323 31.663032 1.5447
2005-01-25 07:55:56 51°16.193 2°54.233 5.6557 3.125532 31.60635 2.117759
2005-01-25 07:56:56 51°16.229 2°54.29 5.6486 3.136061 31.742907 1.982922
2005-01-25 07:57:56 51°16.226 2°54.275 5.6535 3.132271 31.706964 2.117759
2005-01-25 07:58:56 51°16.217 2°54.237 5.6535 3.128165 31.65691 2.151469
2005-01-25 07:59:56 51°16.203 2°54.189 5.6588 3.097631 31.310443 2.488563
2005-01-25 08:00:56 51°16.182 2°54.141 5.6568 3.130481 31.678785 2.926785
2005-01-25 08:01:56 51°16.157 2°54.095 5.6543 3.111634 31.466233 3.162751
2005-01-25 08:02:56 51°16.131 2°54.051 5.65 3.125217 31.62309 3.297589
2005-01-25 08:03:56 51°16.103 2°54.011 5.6478 3.127217 31.651173 3.365007
2005-01-25 08:04:56 51°16.076 2°53.97 5.6484 3.125006 31.623978 3.331298
2005-01-25 08:05:56 51°16.048 2°53.929 5.6472 3.124374 31.620151 3.365007
2005-01-25 08:06:56 51°16.02 2°53.887 5.6445 3.110582 31.466565 3.331298
2005-01-25 08:07:56 51°16.007 2°53.828 5.654 3.124374 31.62421 3.331298
2005-01-25 08:08:56 51°16.053 2°53.804 5.6395 3.127006 31.642318 3.19646
2005-01-25 08:09:56 51°16.113 2°53.944 5.6159 3.122163 31.614058 3.263879
2005-01-25 08:10:56 51°16.188 2°54.115 5.6071 3.109319 31.484753 3.702101
2005-01-25 08:11:56 51°16.239 2°54.241 5.5966 3.10795 31.481556 3.634683
2005-01-25 08:12:56 51°16.243 2°54.282 5.6016 2.714007 27.102184 3.938067
2005-01-25 08:13:56 51°16.223 2°54.278 5.6215 3.018674 30.468479 4.140324
2005-01-25 08:14:56 51°16.197 2°54.256 5.6031 2.983515 30.076729 3.938067
2005-01-25 08:15:56 51°16.172 2°54.239 5.5962 2.992042 30.187953 2.859366
2005-01-25 08:16:56 51°16.154 2°54.218 5.5952 2.992884 30.19501 2.387435
2005-01-25 08:17:56 51°16.137 2°54.182 5.6113 3.018358 30.467305 2.286306
2005-01-25 08:18:56 51°16.112 2°54.131 5.6478 2.992779 30.192285 2.387435
2005-01-25 08:19:56 51°16.106 2°54.052 5.6227 3.004779 30.298788 2.555982
2005-01-25 08:20:56 51°16.078 2°53.866 5.631 3.036149 30.659499 3.23017
2005-01-25 08:21:56 51°16.04 2°53.527 5.6135 3.000042 30.254573 4.039195
2005-01-25 08:22:56 51°16.074 2°53.157 5.6529 2.986252 30.106427 3.027913
2005-01-25 08:23:56 51°16.239 2°52.937 5.8031 3.044149 30.659046 2.185178
2005-01-25 08:24:56 51°16.437 2°52.822 5.8114 3.058887 30.742883 2.286306
2005-01-25 08:25:56 51°16.64 2°52.728 5.7725 3.053412 30.681289 2.320016
2005-01-25 08:26:56 51°16.836 2°52.633 5.7862 3.027515 30.420244 2.117759
2005-01-25 08:27:56 51°17.034 2°52.541 5.7982 2.658459 26.357972 2.353725
2005-01-25 08:28:56 51°17.232 2°52.447 5.8116 3.034358 30.477536 2.859366
2005-01-25 08:29:56 51°17.421 2°52.303 5.7776 3.016778 30.292547 3.162751
2005-01-25 08:30:56 51°17.596 2°52.108 5.7886 3.055834 30.727011 2.893076
2005-01-25 08:31:56 51°17.768 2°51.903 5.754 3.025726 30.40426 3.398717
2005-01-25 08:32:56 51°17.941 2°51.705 5.7602 3.019831 30.358212 3.297589
2005-01-25 08:33:56 51°18.117 2°51.504 5.7542 2.404168 23.633291 3.095332
2005-01-25 08:34:56 51°18.294 2°51.297 5.7415 3.031727 30.513003 3.23017
2005-01-25 08:35:56 51°18.46 2°51.069 5.7832 3.051518 30.72221 2.387435
2005-01-25 08:36:56 51°18.545 2°51.005 5.7527 3.005619 30.178815 2.050341
2005-01-25 08:37:56 51°18.552 2°50.984 5.7437 3.056045 30.763146 1.612118
2005-01-25 08:38:56 51°18.542 2°50.952 5.7667 3.047833 30.668657 1.409862
2005-01-25 08:39:56 51°18.52 2°50.907 5.7628 3.041622 30.601937 1.409862
2005-01-25 08:40:56 51°18.492 2°50.852 5.7597 3.080154 31.032355 1.275024
2005-01-25 08:41:56 51°18.476 2°50.799 5.7675 3.044464 30.631977 1.342443
2005-01-25 08:42:56 51°18.522 2°50.824 5.7772 3.080469 31.030317 1.308734
2005-01-25 08:43:56 51°18.618 2°51.025 5.7906 3.029516 30.463469 1.140187
2005-01-25 08:44:56 51°18.69 2°51.305 5.782 3.041411 30.587079 1.241315
2005-01-25 08:45:56 51°18.755 2°51.593 5.7643 3.049097 30.680353 1.275024
2005-01-25 08:46:56 51°18.823 2°51.882 5.7636 2.996672 30.108831 1.275024
2005-01-25 08:47:56 51°18.893 2°52.169 5.7585 3.043412 30.618705 1.746956
2005-01-25 08:48:56 51°18.963 2°52.455 5.7618 3.057308 30.789804 1.308734
2005-01-25 08:49:56 51°19.035 2°52.745 5.7583 2.954462 29.634067 1.814375
2005-01-25 08:50:56 51°19.105 2°53.038 5.7463 3.016462 30.329331 2.218888
2005-01-25 08:51:56 51°19.174 2°53.331 5.7196 2.947831 29.58562 2.218888
2005-01-25 08:52:56 51°19.236 2°53.624 5.6817 3.164069 32.016572 2.185178
2005-01-25 08:53:56 51°19.297 2°53.919 5.6977 3.159647 31.980153 2.08405
2005-01-25 08:54:56 51°19.358 2°54.212 5.7078 3.163227 32.0137 2.218888
2005-01-25 08:55:56 51°19.421 2°54.506 5.7275 3.165649 32.031802 1.679537
2005-01-25 08:56:56 51°19.483 2°54.802 5.7358 3.16786 32.04836 1.848084
2005-01-25 08:57:56 51°19.546 2°55.099 5.7444 3.169966 32.065375 2.08405
2005-01-25 08:58:56 51°19.606 2°55.394 5.7225 3.16807 32.044972 2.320016
2005-01-25 08:59:56 51°19.667 2°55.692 5.7078 3.166596 32.041597 2.387435
2005-01-25 09:00:56 51°19.728 2°55.983 5.6985 3.164806 32.027291 2.320016
2005-01-25 09:01:56 51°19.792 2°56.275 5.6932 3.164806 32.028112 2.050341
2005-01-25 09:02:56 51°19.856 2°56.57 5.6797 3.159647 31.983433 1.814375
2005-01-25 09:03:56 51°19.922 2°56.871 5.683 3.156909 31.964234 1.881794
2005-01-25 09:04:56 51°19.992 2°57.179 5.6805 3.154698 31.935358 2.589691
2005-01-25 09:05:56 51°20.057 2°57.485 5.6807 3.152803 31.911666 3.466136
2005-01-25 09:06:56 51°20.122 2°57.785 5.6629 3.152698 31.93096 2.454853
2005-01-25 09:07:56 51°20.187 2°58.081 5.6524 3.144906 31.854256 2.555982
2005-01-25 09:08:56 51°20.255 2°58.384 5.6346 3.142695 31.835192 2.016631
2005-01-25 09:09:56 51°20.323 2°58.689 5.6027 3.136904 31.783336 2.65711
2005-01-25 09:10:56 51°20.39 2°58.989 5.5761 3.132903 31.776029 2.387435
2005-01-25 09:11:56 51°20.457 2°59.291 5.5675 3.127955 31.737637 1.982922
2005-01-25 09:12:56 51°20.524 2°59.59 5.574 3.121954 31.669453 2.050341
2005-01-25 09:13:56 51°20.591 2°59.893 5.6014 3.117847 31.624999 2.050341
2005-01-25 09:14:56 51°20.655 3°0.199 5.5847 3.119953 31.636418 2.387435
2005-01-25 09:15:56 51°20.718 3°0.508 5.6122 3.136378 31.82731 2.286306
2005-01-25 09:16:56 51°20.782 3°0.816 5.5819 3.140274 31.866143 2.320016
2005-01-25 09:17:56 51°20.842 3°1.125 5.5839 3.144064 31.904611 2.320016
2005-01-25 09:18:56 51°20.905 3°1.434 5.584 3.14438 31.919654 2.050341
2005-01-25 09:19:56 51°20.969 3°1.743 5.587 3.142906 31.895706 2.286306
2005-01-25 09:20:56 51°21.031 3°2.053 5.5903 3.140695 31.865954 2.320016
2005-01-25 09:21:56 51°21.097 3°2.363 5.5956 3.138589 31.849683 2.286306
2005-01-25 09:22:56 51°21.161 3°2.676 5.5883 3.135009 31.80621 2.286306
2005-01-25 09:23:56 51°21.224 3°2.988 5.5865 3.129429 31.745201 2.286306
2005-01-25 09:24:56 51°21.287 3°3.302 5.5735 3.124059 31.693089 2.353725
2005-01-25 09:25:56 51°21.352 3°3.616 5.5822 3.132588 31.791292 2.353725
2005-01-25 09:26:56 51°21.416 3°3.93 5.5859 3.145644 31.929742 2.555982
2005-01-25 09:27:56 51°21.482 3°4.245 5.5779 3.151751 31.991773 2.488563
2005-01-25 09:28:56 51°21.546 3°4.559 5.5868 3.157226 32.061546 2.185178
2005-01-25 09:29:56 51°21.612 3°4.874 5.5774 3.161333 32.114323 2.050341
2005-01-25 09:30:56 51°21.676 3°5.186 5.5715 3.157648 32.076186 1.780665
2005-01-25 09:31:56 51°21.741 3°5.504 5.5717 3.157542 32.079131 1.713247
2005-01-25 09:32:56 51°21.806 3°5.819 5.5659 3.153646 32.037796 1.679537
2005-01-25 09:33:56 51°21.87 3°6.137 5.5624 3.152699 32.032913 1.5447
2005-01-25 09:34:56 51°21.934 3°6.456 5.558 3.152804 32.031623 1.612118
2005-01-25 09:35:56 51°21.993 3°6.776 5.5472 3.14954 32.001511 1.612118
2005-01-25 09:36:56 51°22.019 3°7.113 5.5439 3.146171 31.968562 1.51099
2005-01-25 09:37:56 51°22.048 3°7.454 5.5379 3.144065 31.948172 1.308734
2005-01-25 09:38:56 51°22.076 3°7.794 5.5363 3.137432 31.876868 1.106477
2005-01-25 09:39:56 51°22.107 3°8.133 5.5345 3.134589 31.84983 1.039059
2005-01-25 09:40:56 51°22.137 3°8.476 5.5384 3.135747 31.862032 1.039059
2005-01-25 09:41:56 51°22.169 3°8.823 5.5415 3.128903 31.785089 1.106477
2005-01-25 09:42:56 51°22.206 3°9.17 5.558 3.134799 31.845632 1.140187
2005-01-25 09:43:56 51°22.242 3°9.518 5.5592 3.132062 31.805026 1.106477
2005-01-25 09:44:56 51°22.279 3°9.866 5.5533 3.127323 31.748521 1.207606
2005-01-25 09:45:56 51°22.317 3°10.215 5.5394 3.119953 31.66656 1.207606
2005-01-25 09:46:56 51°22.359 3°10.558 5.5083 3.087947 31.333234 1.173896
2005-01-25 09:47:56 51°22.401 3°10.908 5.5026 3.074787 31.207317 1.241315
2005-01-25 09:48:56 51°22.437 3°11.255 5.5024 3.06447 31.097174 1.207606
2005-01-25 09:49:56 51°22.47 3°11.606 5.5025 3.065943 31.112105 1.173896
2005-01-25 09:50:56 51°22.505 3°11.961 5.504 3.06668 31.121978 1.140187
2005-01-25 09:51:56 51°22.543 3°12.316 5.5098 3.06468 31.097129 1.173896
2005-01-25 09:52:56 51°22.582 3°12.669 5.5024 3.062574 31.065498 1.207606
2005-01-25 09:53:56 51°22.622 3°13.013 5.5002 3.057311 31.013673 1.275024
2005-01-25 09:54:56 51°22.646 3°13.217 5.4972 3.057205 31.012492 1.173896
2005-01-25 09:55:56 51°22.659 3°13.263 5.4991 3.05531 30.996839 1.140187
2005-01-25 09:56:56 51°22.657 3°13.27 5.4929 3.058995 31.041369 1.140187
2005-01-25 09:57:56 51°22.652 3°13.272 5.4936 3.058364 31.038287 1.173896
2005-01-25 09:58:56 51°22.644 3°13.27 5.4911 3.056469 31.008227 1.241315
2005-01-25 09:59:56 51°22.634 3°13.269 5.5022 3.055837 31.001943 1.173896
2005-01-25 10:00:56 51°22.624 3°13.269 5.4953 3.060785 31.058242 1.207606
2005-01-25 10:01:56 51°22.614 3°13.271 5.4983 3.055837 31.001943 1.207606
2005-01-25 10:02:56 51°22.603 3°13.274 5.5041 3.061101 31.059381 1.207606
2005-01-25 10:03:56 51°22.593 3°13.279 5.5028 3.055205 30.987665 1.207606
2005-01-25 10:04:56 51°22.584 3°13.284 5.5135 3.061732 31.058456 1.241315
2005-01-25 10:05:56 51°22.574 3°13.291 5.5072 3.062785 31.06866 1.241315
2005-01-25 10:06:56 51°22.565 3°13.299 5.509 3.058785 31.0246 1.173896
2005-01-25 10:07:56 51°22.565 3°13.285 5.5168 3.064364 31.083164 1.140187
2005-01-25 10:08:56 51°22.636 3°13.293 5.5138 3.063838 31.062045 1.072768
2005-01-25 10:09:56 51°22.808 3°13.443 5.5248 3.06068 31.048251 1.005349
2005-01-25 10:10:56 51°22.992 3°13.651 5.569 3.078892 31.215564 1.241315
2005-01-25 10:11:56 51°23.173 3°13.864 5.571 3.080998 31.211839 1.376153
2005-01-25 10:12:56 51°23.354 3°14.076 5.5769 3.079629 31.199719 1.376153
2005-01-25 10:13:56 51°23.532 3°14.289 5.5857 3.073944 31.128028 1.241315
2005-01-25 10:14:56 51°23.711 3°14.504 5.5985 3.071312 31.084965 1.072768
2005-01-25 10:15:56 51°23.893 3°14.722 5.5981 3.078365 31.16231 1.005349
2005-01-25 10:16:56 51°24.072 3°14.951 5.6047 3.077523 31.144873 1.072768
2005-01-25 10:17:56 51°24.246 3°15.193 5.6025 3.08184 31.193181 1.039059
2005-01-25 10:18:56 51°24.42 3°15.447 5.598 3.099738 31.39682 1.005349
2005-01-25 10:19:56 51°24.592 3°15.705 5.5694 3.101107 31.417809 0.904221
2005-01-25 10:20:56 51°24.768 3°15.965 5.5582 3.115005 31.606928 0.97164
2005-01-25 10:21:56 51°24.942 3°16.228 5.5487 3.112478 31.586697 0.904221
2005-01-25 10:22:56 51°25.109 3°16.487 5.3804 3.116058 31.640744 0.803093
2005-01-25 10:23:56 51°25.272 3°16.739 5.3209 3.165231 32.353898 0.803093
2005-01-25 10:24:56 51°25.435 3°16.992 5.3451 3.164915 32.383048 1.106477
2005-01-25 10:25:56 51°25.583 3°17.262 5.3527 3.17555 32.484173 1.173896
2005-01-25 10:26:56 51°25.729 3°17.539 5.3606 3.177129 32.490273 1.106477
2005-01-25 10:27:56 51°25.859 3°17.766 5.3484 3.17555 32.471547 1.275024
2005-01-25 10:28:56 51°25.922 3°17.808 5.3352 3.174181 32.474561 1.275024
2005-01-25 10:29:56 51°25.913 3°17.818 5.3264 3.173023 32.468175 1.342443
2005-01-25 10:30:56 51°25.9 3°17.828 5.3257 3.171128 32.451751 1.376153
2005-01-25 10:31:56 51°25.887 3°17.838 5.3254 3.17176 32.462277 1.477281
2005-01-25 10:32:56 51°25.872 3°17.848 5.3262 3.17197 32.469718 1.443571
2005-01-25 10:33:56 51°25.889 3°17.839 5.3292 3.172076 32.470069 1.443571
2005-01-25 10:34:56 51°25.879 3°17.703 5.3321 3.170391 32.450133 1.376153
2005-01-25 10:35:56 51°25.816 3°17.41 5.3488 3.170496 32.444592 1.409862
2005-01-25 10:36:56 51°25.757 3°17.082 5.3617 3.170706 32.433518 1.409862
2005-01-25 10:37:56 51°25.717 3°16.741 5.3801 3.177235 32.487256 1.409862
2005-01-25 10:38:56 51°25.685 3°16.394 5.3908 3.174391 32.4349 1.241315
2005-01-25 10:39:56 51°25.664 3°16.052 5.3948 3.174813 32.42875 1.207606
2005-01-25 10:40:56 51°25.631 3°15.706 5.3972 3.182078 32.510939 1.173896
2005-01-25 10:41:56 51°25.592 3°15.363 5.4077 3.182394 32.51283 1.241315
2005-01-25 10:42:56 51°25.552 3°15.019 5.4203 3.184184 32.517934 1.241315
2005-01-25 10:43:56 51°25.514 3°14.671 5.4235 3.186816 32.542657 1.241315
2005-01-25 10:44:56 51°25.476 3°14.322 5.437 3.190291 32.574374 1.207606
2005-01-25 10:45:56 51°25.44 3°13.972 5.4479 3.192187 32.587382 1.207606
2005-01-25 10:46:56 51°25.402 3°13.625 5.4702 3.189975 32.550602 1.207606
2005-01-25 10:47:56 51°25.367 3°13.283 5.4892 3.191133 32.540989 1.275024
2005-01-25 10:48:56 51°25.349 3°12.937 5.5054 3.195556 32.579164 1.308734
2005-01-25 10:49:56 51°25.332 3°12.591 5.5156 3.197662 32.581921 1.275024
2005-01-25 10:50:56 51°25.342 3°12.254 5.5338 3.199136 32.587632 1.342443
2005-01-25 10:51:56 51°25.446 3°11.968 5.5469 3.198398 32.564202 1.477281
2005-01-25 10:52:56 51°25.574 3°11.707 5.5346 3.201136 32.597599 1.443571
2005-01-25 10:53:56 51°25.688 3°11.435 5.5421 3.205664 32.642787 1.5447
2005-01-25 10:54:56 51°25.796 3°11.168 5.5495 3.206612 32.64927 1.578409
2005-01-25 10:55:56 51°25.899 3°10.891 5.5651 3.207033 32.643928 1.915503
2005-01-25 10:56:56 51°25.994 3°10.598 5.5908 3.207665 32.629201 2.353725
2005-01-25 10:57:56 51°26.062 3°10.284 5.6028 3.210192 32.647597 2.421144
2005-01-25 10:58:56 51°26.121 3°9.965 5.6175 3.212192 32.654175 2.488563
2005-01-25 10:59:56 51°26.181 3°9.641 5.6667 3.213666 32.64727 2.589691
2005-01-25 11:00:56 51°26.24 3°9.315 5.6815 3.21851 32.669051 2.555982
2005-01-25 11:01:56 51°26.299 3°8.987 5.7328 3.222933 32.685233 2.522272
2005-01-25 11:02:56 51°26.349 3°8.733 5.7507 -999 -999 -2.3993
2005-01-25 11:03:56 51°26.379 3°8.621 5.7715 3.228619 32.69632 1.982922
2005-01-25 11:04:56 51°26.412 3°8.559 5.7811 3.234305 32.735836 1.881794
2005-01-25 11:05:56 51°26.435 3°8.456 5.7879 3.234937 32.739573 1.814375
2005-01-25 11:06:56 51°26.462 3°8.41 5.7955 3.237359 32.753334 1.814375
2005-01-25 11:07:56 51°26.466 3°8.402 5.7898 3.237359 32.757521 1.645828
2005-01-25 11:08:56 51°26.46 3°8.398 5.7824 3.236727 32.753786 1.5447
2005-01-25 11:09:56 51°26.45 3°8.395 5.7855 3.237254 32.761366 1.578409
2005-01-25 11:10:56 51°26.437 3°8.391 5.7852 3.237043 32.756491 1.713247
2005-01-25 11:11:56 51°26.437 3°8.366 5.7905 3.237254 32.759691 1.645828
2005-01-25 11:12:56 51°26.509 3°8.189 5.809 3.2362 32.732818 1.780665
2005-01-25 11:13:56 51°26.605 3°7.92 5.8047 3.237043 32.747281 1.679537
2005-01-25 11:14:56 51°26.714 3°7.629 5.8586 3.236516 32.729667 1.578409
2005-01-25 11:15:56 51°26.823 3°7.347 5.9323 3.24473 32.750607 1.241315
2005-01-25 11:16:56 51°26.934 3°7.063 5.9694 3.251469 32.77171 1.241315
2005-01-25 11:17:56 51°27.047 3°6.783 5.9635 3.255892 32.797754 1.072768
2005-01-25 11:18:56 51°27.165 3°6.501 5.9937 3.257471 32.804548 1.140187
2005-01-25 11:19:56 51°27.279 3°6.22 6.0157 3.264 32.859898 1.207606
2005-01-25 11:20:56 51°27.397 3°5.935 6.0128 3.266738 32.868746 1.241315
2005-01-25 11:21:56 51°27.509 3°5.657 6.0154 3.266317 32.870723 1.275024
2005-01-25 11:22:56 51°27.628 3°5.376 6.043 3.269687 32.893286 1.173896
2005-01-25 11:23:56 51°27.746 3°5.092 6.0659 3.27232 32.899271 1.140187
2005-01-25 11:24:56 51°27.866 3°4.808 6.0973 3.276427 32.915838 1.039059
2005-01-25 11:25:56 51°27.976 3°4.521 6.119 3.280955 32.944578 0.769383
2005-01-25 11:26:56 51°28.063 3°4.204 6.1496 3.278638 32.899631 0.735674
2005-01-25 11:27:56 51°28.157 3°3.888 6.1803 3.28938 32.983279 0.735674
2005-01-25 11:28:56 51°28.228 3°3.645 6.2015 3.293382 33.000256 0.769383
2005-01-25 11:29:56 51°28.257 3°3.496 6.2112 3.296857 33.023865 0.803093
2005-01-25 11:30:56 51°28.26 3°3.467 6.2209 3.298542 33.02758 0.769383
2005-01-25 11:31:56 51°28.255 3°3.46 6.2294 3.300438 33.042795 0.769383
2005-01-25 11:32:56 51°28.25 3°3.454 6.2354 3.300016 33.036451 0.93793
2005-01-25 11:33:56 51°28.245 3°3.452 6.2384 3.301491 33.039489 0.769383
2005-01-25 11:34:56 51°28.239 3°3.455 6.2392 3.302544 33.052843 0.735674
2005-01-25 11:35:56 51°28.242 3°3.446 6.2441 3.302017 33.045333 0.803093
2005-01-25 11:36:56 51°28.303 3°3.263 6.2484 3.302122 33.041505 0.803093
2005-01-25 11:37:56 51°28.285 3°2.949 6.2713 3.302122 33.037341 0.701965
2005-01-25 11:38:56 51°28.227 3°2.613 6.2964 3.30644 33.057764 0.701965
2005-01-25 11:39:56 51°28.16 3°2.278 6.3036 3.306651 33.045956 0.93793
2005-01-25 11:40:56 51°28.105 3°1.939 6.3178 3.305597 33.021819 0.836802
2005-01-25 11:41:56 51°28.05 3°1.601 6.3264 3.308546 33.046177 0.904221
2005-01-25 11:42:56 51°27.986 3°1.269 6.3334 3.312127 33.085013 0.701965
2005-01-25 11:43:56 51°27.915 3°0.937 6.3605 3.315497 33.10071 0.836802
2005-01-25 11:44:56 51°27.853 3°0.605 6.384 3.313706 33.049327 0.870512
2005-01-25 11:45:56 51°27.8 3°0.258 6.3973 3.320763 33.111599 0.904221
2005-01-25 11:46:56 51°27.748 2°59.918 6.3899 3.318972 33.103427 0.769383
2005-01-25 11:47:56 51°27.696 2°59.577 6.3822 3.321184 33.119583 0.769383
2005-01-25 11:48:56 51°27.644 2°59.238 6.3874 3.317603 33.077488 0.803093
2005-01-25 11:49:56 51°27.591 2°58.905 6.392 3.318656 33.089135 0.735674
2005-01-25 11:50:56 51°27.539 2°58.567 6.3939 3.320552 33.103456 0.668255
2005-01-25 11:51:56 51°27.486 2°58.234 6.4005 3.319078 33.088812 0.668255
2005-01-25 11:52:56 51°27.431 2°57.898 6.3971 3.322553 33.118106 0.634546
2005-01-25 11:53:56 51°27.382 2°57.556 6.412 3.322027 33.115607 0.600836
2005-01-25 11:54:56 51°27.337 2°57.217 6.4228 3.318129 33.054284 0.39858
2005-01-25 11:55:56 51°27.288 2°56.875 6.4451 3.324343 33.122949 0.432289
2005-01-25 11:56:56 51°27.241 2°56.547 6.4763 3.330031 33.149251 0.364871
2005-01-25 11:57:56 51°27.191 2°56.213 6.4998 3.337508 33.204404 0.39858
2005-01-25 11:58:56 51°27.148 2°55.875 6.5193 3.340246 33.208877 0.432289
2005-01-25 11:59:56 51°27.099 2°55.542 6.5381 3.345723 33.255162 0.432289
2005-01-25 12:00:56 51°27.049 2°55.212 6.5434 3.343301 33.211854 0.465999
2005-01-25 12:01:56 51°27.008 2°54.88 6.531 3.346882 33.255476 0.465999
2005-01-25 12:02:56 51°26.97 2°54.549 6.5373 3.345302 33.23391 0.533418
2005-01-25 12:03:56 51°26.933 2°54.219 6.5364 3.346671 33.252323 0.499708
2005-01-25 12:04:56 51°26.892 2°53.889 6.5591 3.348567 33.26907 0.533418
2005-01-25 12:05:56 51°26.847 2°53.56 6.5885 3.354781 33.310965 0.465999
2005-01-25 12:06:56 51°26.8 2°53.225 6.6143 3.35952 33.334915 0.465999
2005-01-25 12:07:56 51°26.757 2°52.889 6.6364 3.357519 33.28716 0.364871
2005-01-25 12:08:56 51°26.711 2°52.557 6.6645 3.367946 33.382778 0.39858
2005-01-25 12:09:56 51°26.67 2°52.224 6.6929 3.374055 33.42586 0.39858
2005-01-25 12:10:56 51°26.628 2°51.89 6.7007 3.376478 33.431711 0.331161
2005-01-25 12:11:56 51°26.583 2°51.561 6.722 3.37574 33.414473 0.297452
2005-01-25 12:12:56 51°26.542 2°51.228 6.7277 3.375319 33.39325 0.331161
2005-01-25 12:13:57 51°26.496 2°50.898 6.7217 3.376793 33.39783 0.297452
2005-01-25 12:14:56 51°26.455 2°50.574 6.7193 3.383956 33.483117 0.297452
2005-01-25 12:15:56 51°26.413 2°50.244 6.7181 3.381744 33.464641 0.297452
2005-01-25 12:16:56 51°26.352 2°49.92 6.7062 3.381428 33.465326 0.263742
2005-01-25 12:17:56 51°26.242 2°49.637 6.7229 3.378795 33.442216 0.263742
2005-01-25 12:18:56 51°26.151 2°49.335 6.6911 3.376583 33.416257 0.331161
2005-01-25 12:19:56 51°26.088 2°49.008 6.6913 3.376478 33.422573 0.39858
2005-01-25 12:20:56 51°26.039 2°48.759 6.6931 3.37553 33.424617 0.364871
2005-01-25 12:21:56 51°26.016 2°48.617 6.6871 3.375951 33.428416 0.39858
2005-01-25 12:22:57 51°26.005 2°48.549 6.688 3.375003 33.41966 0.331161
2005-01-25 12:23:56 51°26.013 2°48.534 6.6973 3.370474 33.361596 0.331161
2005-01-25 12:24:56 51°26.027 2°48.533 6.6995 3.377636 33.439457 0.331161
2005-01-25 12:25:56 51°26.037 2°48.543 6.6986 3.378268 33.437261 0.297452
2005-01-25 12:26:56 51°26.046 2°48.557 6.7041 3.37711 33.427855 0.331161
2005-01-25 12:27:56 51°26.052 2°48.574 6.7061 3.373528 33.386856 0.331161
2005-01-25 12:28:56 51°26.055 2°48.595 6.7011 3.378268 33.436431 0.364871
2005-01-25 12:29:56 51°26.058 2°48.615 6.7023 3.37732 33.428508 0.39858
2005-01-25 12:30:56 51°26.061 2°48.634 6.7011 3.377952 33.439605 0.364871
2005-01-25 12:31:56 51°26.064 2°48.653 6.6941 3.378163 33.439427 0.39858
2005-01-25 12:32:56 51°26.067 2°48.67 6.6926 3.37258 33.38142 0.364871
2005-01-25 12:33:56 51°26.071 2°48.687 6.697 3.377004 33.426698 0.364871
2005-01-25 12:34:56 51°26.089 2°48.663 6.6941 3.377952 33.437113 0.39858
2005-01-25 12:35:56 51°26.027 2°48.58 6.7006 3.377426 33.437142 0.364871
2005-01-25 12:36:56 51°25.867 2°48.406 6.7026 3.37395 33.393143 0.331161
2005-01-25 12:37:56 51°25.726 2°48.169 6.685 3.374582 33.399255 0.331161
2005-01-25 12:38:56 51°25.606 2°47.907 6.688 3.373739 33.400787 0.331161
2005-01-25 12:39:56 51°25.515 2°47.612 6.676 3.372159 33.389237 0.364871
2005-01-25 12:40:56 51°25.427 2°47.314 6.6891 3.369526 33.366938 0.297452
2005-01-25 12:41:57 51°25.338 2°47.01 6.6876 3.374476 33.412211 0.331161
2005-01-25 12:42:57 51°25.25 2°46.711 6.698 3.369526 33.352012 0.39858
2005-01-25 12:43:56 51°25.161 2°46.416 6.7082 3.376267 33.419428 0.39858
2005-01-25 12:44:56 51°25.073 2°46.116 6.7218 3.378268 33.423975 0.567127
2005-01-25 12:45:56 51°24.981 2°45.819 6.7258 3.380901 33.447079 0.364871
2005-01-25 12:46:56 51°24.892 2°45.518 6.7331 3.38364 33.471336 0.432289
2005-01-25 12:47:56 51°24.798 2°45.228 6.7209 3.382903 33.464901 0.499708
2005-01-25 12:48:56 51°24.706 2°44.928 6.7246 3.382376 33.464934 0.39858
2005-01-25 12:49:56 51°24.615 2°44.634 6.7176 3.381533 33.449867 0.432289
2005-01-25 12:50:57 51°24.525 2°44.328 6.7245 3.381428 33.452862 0.331161
2005-01-25 12:51:56 51°24.437 2°44.039 6.7336 3.383008 33.470213 0.297452
2005-01-25 12:52:56 51°24.348 2°43.742 6.7339 3.385641 33.488323 0.364871
2005-01-25 12:53:57 51°24.253 2°43.44 6.739 3.385009 33.47723 0.297452
2005-01-25 12:54:57 51°24.162 2°43.146 6.7526 3.387116 33.497032 0.297452
2005-01-25 12:55:56 51°24.078 2°42.858 6.7611 3.387432 33.491359 0.297452
2005-01-25 12:56:56 51°23.988 2°42.56 6.7835 3.386167 33.459228 0.297452
2005-01-25 12:57:56 51°23.892 2°42.284 6.7861 3.396174 33.564846 0.263742
2005-01-25 12:58:56 51°23.793 2°41.99 6.7983 3.39649 33.55833 0.297452
2005-01-25 12:59:56 51°23.698 2°41.699 6.7917 3.395858 33.534778 0.263742
2005-01-25 13:00:56 51°23.598 2°41.408 6.8053 3.397227 33.555608 0.297452
2005-01-25 13:01:56 51°23.499 2°41.115 6.8246 3.39512 33.517563 0.331161
2005-01-25 13:02:56 51°23.399 2°40.833 6.8423 3.399966 33.555716 0.331161
2005-01-25 13:03:56 51°23.305 2°40.539 6.8446 3.405127 33.603959 0.331161
2005-01-25 13:04:56 51°23.203 2°40.251 6.8584 3.402177 33.55836 0.297452
2005-01-25 13:05:56 51°23.106 2°39.959 6.8647 3.404811 33.572255 0.432289
2005-01-25 13:06:56 51°23.014 2°39.672 6.8621 3.411447 33.638261 0.331161
2005-01-25 13:07:56 51°22.917 2°39.386 6.8517 3.41092 33.64081 0.297452
2005-01-25 13:08:56 51°22.821 2°39.103 6.8479 3.407971 33.61433 0.331161
2005-01-25 13:09:56 51°22.725 2°38.811 6.8506 3.406602 33.610969 0.364871
2005-01-25 13:10:56 51°22.633 2°38.523 6.8447 3.406602 33.603489 0.364871
2005-01-25 13:11:56 51°22.538 2°38.238 6.8422 3.4046 33.59237 0.39858
2005-01-25 13:12:56 51°22.447 2°37.95 6.8335 3.406075 33.61102 0.364871
2005-01-25 13:13:56 51°22.354 2°37.67 6.825 3.405232 33.605113 0.39858
2005-01-25 13:14:56 51°22.259 2°37.392 6.8065 3.403442 33.60129 0.432289
2005-01-25 13:15:56 51°22.171 2°37.105 6.7841 3.401757 33.596124 0.432289
2005-01-25 13:16:56 51°22.078 2°36.823 6.7582 3.39649 33.561657 0.533418
2005-01-25 13:17:57 51°21.982 2°36.537 6.7515 3.394805 33.56147 0.432289
2005-01-25 13:18:56 51°21.89 2°36.255 6.7462 3.394384 33.56517 0.432289
2005-01-25 13:19:57 51°21.794 2°35.961 6.6927 3.388906 33.514195 0.634546
2005-01-25 13:20:57 51°21.703 2°35.686 6.6609 3.38185 33.498246 0.735674
2005-01-25 13:21:56 51°21.605 2°35.412 6.6465 3.379638 33.478921 0.769383
2005-01-25 13:22:57 51°21.512 2°35.124 6.6385 3.375109 33.454916 0.836802
2005-01-25 13:23:56 51°21.418 2°34.837 6.623 3.371528 33.420511 0.904221
2005-01-25 13:24:56 51°21.325 2°34.548 6.6148 3.367736 33.400414 0.836802
2005-01-25 13:25:56 51°21.228 2°34.262 6.6099 3.368789 33.411176 0.836802
2005-01-25 13:26:56 51°21.148 2°33.96 6.6124 3.364365 33.371632 0.836802
2005-01-25 13:27:56 51°21.07 2°33.658 6.6032 3.367104 33.403443 0.870512
2005-01-25 13:28:56 51°20.99 2°33.353 6.593 3.364787 33.387083 0.803093
2005-01-25 13:29:56 51°20.906 2°33.055 6.6031 3.36426 33.38378 0.870512
2005-01-25 13:30:56 51°20.824 2°32.748 6.6304 3.365735 33.3892 0.93793
2005-01-25 13:31:56 51°20.741 2°32.442 6.6344 3.368895 33.413999 0.870512
2005-01-25 13:32:56 51°20.654 2°32.135 6.6413 3.371738 33.431982 0.93793
2005-01-25 13:33:56 51°20.558 2°31.838 6.6506 3.378269 33.485515 0.836802
2005-01-25 13:34:56 51°20.456 2°31.554 6.6782 3.377637 33.473565 0.836802
2005-01-25 13:35:56 51°20.367 2°31.256 6.6904 3.379217 33.479284 0.93793
2005-01-25 13:36:57 51°20.28 2°30.955 6.69 3.383324 33.511127 0.870512
2005-01-25 13:37:56 51°20.198 2°30.657 6.6929 3.38659 33.545361 0.803093
2005-01-25 13:38:56 51°20.106 2°30.388 6.7812 3.389118 33.566483 0.836802
2005-01-25 13:39:56 51°20.047 2°30.22 6.6968 3.391014 33.581487 0.735674
2005-01-25 13:40:57 51°20.012 2°30.082 6.6944 3.389539 33.56611 0.701965
2005-01-25 13:41:56 51°19.998 2°30.03 6.6927 3.391856 33.592421 0.701965
2005-01-25 13:42:56 51°20 2°30.027 6.6997 3.392594 33.593849 0.769383
2005-01-25 13:43:57 51°20.008 2°30.026 6.6964 3.393331 33.596111 0.701965
2005-01-25 13:44:56 51°20.018 2°30.035 6.7064 3.393226 33.598292 0.769383
2005-01-25 13:45:56 51°20.025 2°30.051 6.7087 3.393857 33.601065 0.735674
2005-01-25 13:46:56 51°20.032 2°30.078 6.7064 3.383219 33.480007 0.769383
2005-01-25 13:47:56 51°20.037 2°30.104 6.712 3.394279 33.604027 0.735674
2005-01-25 13:48:56 51°20.039 2°30.128 6.714 3.3947 33.606988 0.769383
2005-01-25 13:49:56 51°20.044 2°30.143 6.7065 3.3947 33.606154 0.803093
2005-01-25 13:50:57 51°20.053 2°30.165 6.7108 3.394911 33.607634 0.769383
2005-01-25 13:51:57 51°20.081 2°30.179 6.7123 3.395121 33.60828 0.735674
2005-01-25 13:52:57 51°20.12 2°30.223 6.7092 3.394911 33.610138 0.803093
2005-01-25 13:53:56 51°20.14 2°30.303 6.7007 3.395016 33.612131 0.769383
2005-01-25 13:54:56 51°20.123 2°30.399 6.708 3.3947 33.612832 0.870512
2005-01-25 13:55:56 51°20.107 2°30.512 6.7106 3.394595 33.610839 0.870512
2005-01-25 13:56:57 51°20.088 2°30.63 6.7112 3.394489 33.603838 0.803093
2005-01-25 13:57:56 51°20.064 2°30.743 6.7112 3.394173 33.600366 0.803093
2005-01-25 13:58:56 51°20.016 2°30.886 6.7062 3.393752 33.599908 0.803093
2005-01-25 13:59:57 51°19.894 2°31.155 6.6907 3.39154 33.588112 0.769383
2005-01-25 14:00:56 51°19.76 2°31.444 6.6739 3.390382 33.582884 0.97164
2005-01-25 14:01:56 51°19.627 2°31.74 6.6412 3.38659 33.561212 1.106477
2005-01-25 14:02:56 51°19.482 2°32.018 6.6168 3.380165 33.528902 0.870512
2005-01-25 14:03:56 51°19.335 2°32.294 6.61 3.377216 33.513959 0.600836
2005-01-25 14:04:56 51°19.195 2°32.564 6.6088 3.378269 33.529738 0.668255
2005-01-25 14:05:56 51°19.057 2°32.841 6.586 3.377111 33.528671 0.465999
2005-01-25 14:06:56 51°18.917 2°33.112 6.5722 3.373846 33.509399 0.735674
2005-01-25 14:07:56 51°18.756 2°33.357 6.5515 3.366683 33.447976 0.93793
2005-01-25 14:08:56 51°18.6 2°33.602 6.5558 3.36226 33.407543 1.039059
2005-01-25 14:09:56 51°18.439 2°33.847 6.5347 3.360574 33.398966 1.039059
2005-01-25 14:10:56 51°18.277 2°34.088 6.536 3.358995 33.391548 1.072768
2005-01-25 14:11:56 51°18.118 2°34.349 6.5389 3.358889 33.382881 1.039059
2005-01-25 14:12:56 51°17.955 2°34.594 6.548 3.361417 33.407425 0.904221
2005-01-25 14:13:56 51°17.794 2°34.843 6.5456 3.360258 33.387144 1.072768
2005-01-25 14:14:56 51°17.631 2°35.101 6.5692 3.36068 33.39179 1.039059
2005-01-25 14:15:56 51°17.465 2°35.345 6.5659 3.361838 33.394561 1.140187
2005-01-25 14:16:56 51°17.298 2°35.59 6.5537 3.362365 33.399533 1.275024
2005-01-25 14:17:56 51°17.13 2°35.838 6.5491 3.361312 33.392923 1.342443
2005-01-25 14:18:56 51°16.963 2°36.07 6.5289 3.358889 33.377047 1.443571
2005-01-25 14:19:56 51°16.806 2°36.329 6.51 3.353202 33.340977 1.173896
2005-01-25 14:20:56 51°16.685 2°36.607 6.4899 3.352359 33.344179 1.207606
2005-01-25 14:21:56 51°16.649 2°36.796 6.4469 3.345408 33.311607 0.97164
2005-01-25 14:22:57 51°16.65 2°36.83 6.445 3.340984 33.270237 0.97164
2005-01-25 14:23:56 51°16.653 2°36.842 6.4512 3.339089 33.25179 0.97164
2005-01-25 14:24:56 51°16.655 2°36.856 6.4713 3.338667 33.247968 1.005349
2005-01-25 14:25:56 51°16.658 2°36.875 6.4974 3.338456 33.221516 0.97164
2005-01-25 14:26:56 51°16.662 2°36.889 6.4906 3.3413 33.226308 0.904221
2005-01-25 14:27:56 51°16.665 2°36.901 6.4762 3.340563 33.228143 0.803093
2005-01-25 14:28:56 51°16.668 2°36.914 6.4643 3.339299 33.234976 0.803093
2005-01-25 14:29:56 51°16.669 2°36.924 6.4546 3.336666 33.211722 0.803093
2005-01-25 14:30:56 51°16.672 2°36.934 6.4461 3.336455 33.215216 0.701965
2005-01-25 14:31:56 51°16.675 2°36.948 6.4446 3.337193 33.234175 0.769383
2005-01-25 14:32:56 51°16.677 2°36.961 6.4424 3.336982 33.23268 0.735674
2005-01-25 14:33:56 51°16.679 2°36.974 6.4318 3.336561 33.22969 0.803093
2005-01-25 14:34:56 51°16.683 2°36.984 6.4298 3.337403 33.247327 0.904221
2005-01-25 14:35:56 51°16.685 2°36.992 6.4183 3.336561 33.246344 0.870512
2005-01-25 14:36:56 51°16.687 2°37.001 6.423 3.336456 33.25018 0.870512
2005-01-25 14:37:56 51°16.68 2°37.024 6.4247 3.337614 33.262155 0.904221
2005-01-25 14:38:56 51°16.654 2°37.058 6.4381 3.338035 33.260144 0.93793
2005-01-25 14:39:57 51°16.611 2°37.093 6.4473 3.339721 33.267103 1.005349
2005-01-25 14:40:56 51°16.554 2°37.112 6.4447 3.341406 33.282392 1.072768
2005-01-25 14:41:56 51°16.49 2°37.135 6.4206 3.338351 33.257803 1.241315
2005-01-25 14:42:56 51°16.42 2°37.162 6.4197 3.331505 33.197954 1.342443
2005-01-25 14:43:56 51°16.349 2°37.189 6.4305 3.333296 33.215249 1.409862
2005-01-25 14:44:56 51°16.222 2°37.196 6.4574 3.334876 33.221889 1.376153
2005-01-25 14:45:56 51°16.012 2°37.159 6.4542 3.338246 33.235823 1.679537
2005-01-25 14:46:56 51°15.799 2°37.188 6.456 3.334138 33.20459 1.780665
2005-01-25 14:47:56 51°15.587 2°37.23 6.4872 3.342037 33.269378 1.814375
2005-01-25 14:48:56 51°15.371 2°37.292 6.4974 3.349937 33.330776 1.713247
2005-01-25 14:49:56 51°15.167 2°37.407 6.4983 3.352254 33.353856 1.275024
2005-01-25 14:50:56 51°14.996 2°37.634 6.4807 3.349094 33.323141 1.072768
2005-01-25 14:51:56 51°14.825 2°37.859 6.5012 3.349515 33.328625 1.173896
2005-01-25 14:52:56 51°14.65 2°38.084 6.505 3.354466 33.369931 1.173896
2005-01-25 14:53:56 51°14.477 2°38.303 6.5229 3.366895 33.503814 1.039059
2005-01-25 14:54:56 51°14.3 2°38.52 6.5226 3.374794 33.573447 1.039059
2005-01-25 14:55:56 51°14.11 2°38.692 6.5065 3.381851 33.648861 0.93793
2005-01-25 14:56:56 51°13.896 2°38.731 6.4855 3.369949 33.540065 1.072768
2005-01-25 14:57:56 51°13.7 2°38.58 6.5235 3.371213 33.562419 1.140187
2005-01-25 14:58:57 51°13.527 2°38.352 6.5324 3.377744 33.606854 1.241315
2005-01-25 14:59:56 51°13.335 2°38.173 6.541 3.380377 33.628374 1.207606
2005-01-25 15:00:57 51°13.134 2°38.007 6.5042 3.389119 33.711459 1.207606
2005-01-25 15:01:57 51°12.939 2°37.852 6.4679 3.373636 33.604317 1.106477
2005-01-25 15:02:57 51°12.738 2°37.701 6.444 3.370898 33.593374 1.275024
2005-01-25 15:03:57 51°12.539 2°37.55 6.4325 3.369844 33.595182 1.173896
2005-01-25 15:04:56 51°12.346 2°37.394 6.4457 3.370266 33.609946 0.97164
2005-01-25 15:05:57 51°12.151 2°37.225 6.4756 3.375638 33.659291 1.039059
2005-01-25 15:06:57 51°11.954 2°37.071 6.4922 3.385223 33.732449 0.904221
2005-01-25 15:07:56 51°11.757 2°36.92 6.5576 3.398389 33.837498 1.039059
2005-01-25 15:08:56 51°11.562 2°36.756 6.5713 3.406921 33.889494 1.241315
2005-01-25 15:09:57 51°11.362 2°36.596 6.606 3.41303 33.941738 1.376153
2005-01-25 15:10:57 51°11.162 2°36.423 6.6752 3.421141 33.981316 1.713247
2005-01-25 15:11:57 51°10.963 2°36.263 6.6776 3.426828 33.995812 1.612118
2005-01-25 15:12:56 51°10.77 2°36.117 6.6673 3.421246 33.940214 1.443571
2005-01-25 15:13:57 51°10.566 2°35.966 6.6917 3.420614 33.937471 1.376153
2005-01-25 15:14:57 51°10.356 2°35.851 6.7295 3.426828 33.973001 1.51099
2005-01-25 15:15:56 51°10.14 2°35.788 6.7379 3.433043 34.012706 1.578409
2005-01-25 15:16:56 51°9.979 2°35.995 6.7456 3.433464 34.010588 1.814375
2005-01-25 15:17:57 51°9.971 2°36.344 6.713 3.434412 34.025242 1.713247
2005-01-25 15:18:56 51°10.026 2°36.683 6.6737 3.428303 33.985017 1.5447
2005-01-25 15:19:56 51°10.092 2°37.019 6.629 3.413556 33.861404 1.241315
2005-01-25 15:20:56 51°10.155 2°37.362 6.5988 3.404287 33.797995 0.93793
2005-01-25 15:21:57 51°10.223 2°37.706 6.5902 3.399863 33.776994 1.039059
2005-01-25 15:22:56 51°10.297 2°38.029 6.5979 3.400284 33.785853 0.97164
2005-01-25 15:23:56 51°10.374 2°38.361 6.5761 3.397756 33.760491 0.97164
2005-01-25 15:24:56 51°10.45 2°38.69 6.5807 3.392068 33.712882 1.039059
2005-01-25 15:25:57 51°10.528 2°39.03 6.5854 3.395228 33.739334 1.005349
2005-01-25 15:26:57 51°10.604 2°39.367 6.5834 3.393754 33.723907 1.072768
2005-01-25 15:27:57 51°10.678 2°39.701 6.5723 3.395018 33.738693 0.97164
2005-01-25 15:28:57 51°10.752 2°40.034 6.5874 3.392174 33.713203 0.97164
2005-01-25 15:29:56 51°10.823 2°40.361 6.58 3.393754 33.728954 1.005349
2005-01-25 15:30:57 51°10.885 2°40.701 6.5687 3.394807 33.738052 1.072768
2005-01-25 15:31:56 51°10.938 2°41.036 6.5717 3.393332 33.72767 1.106477
2005-01-25 15:32:57 51°10.994 2°41.382 6.4913 3.387013 33.688197 1.106477
2005-01-25 15:33:56 51°11.042 2°41.701 6.4658 3.373109 33.595972 1.005349
2005-01-25 15:34:56 51°11.075 2°41.892 6.4472 3.370055 33.584054 1.106477
2005-01-25 15:35:57 51°11.104 2°42.022 6.4436 3.368475 33.569101 0.97164
2005-01-25 15:36:56 51°11.093 2°42.064 6.4402 3.367317 33.56385 1.140187
2005-01-25 15:37:57 51°11.078 2°42.066 6.4409 3.36521 33.547269 1.106477
2005-01-25 15:38:56 51°11.063 2°42.059 6.4688 3.366052 33.545668 1.072768
2005-01-25 15:39:57 51°11.049 2°42.051 6.4828 3.367948 33.547317 0.93793
2005-01-25 15:40:56 51°11.036 2°42.041 6.4649 3.368369 33.541902 0.870512
2005-01-25 15:41:56 51°11.023 2°42.031 6.4465 3.365947 33.535266 0.836802
2005-01-25 15:42:56 51°11.009 2°42.019 6.4295 3.364367 33.534587 0.836802
2005-01-25 15:43:57 51°10.995 2°42.008 6.419 3.362998 33.537921 0.870512
2005-01-25 15:44:56 51°10.982 2°41.994 6.409 3.361629 33.532852 0.803093
2005-01-25 15:45:57 51°10.968 2°41.981 6.4235 3.361313 33.532717 0.904221
2005-01-25 15:46:57 51°10.943 2°42.019 6.4272 3.362682 33.532743 0.803093
2005-01-25 15:47:56 51°10.944 2°42.122 6.4299 3.363946 33.550095 0.870512
2005-01-25 15:48:57 51°10.974 2°42.262 6.4231 3.365315 33.556 0.904221
2005-01-25 15:49:57 51°11.005 2°42.426 6.4081 3.363525 33.545431 1.005349
2005-01-25 15:50:56 51°11.034 2°42.588 6.4009 3.359838 33.516392 0.97164
2005-01-25 15:51:57 51°11.064 2°42.758 6.3892 3.356573 33.495365 0.904221
2005-01-25 15:52:56 51°11.094 2°42.943 6.3552 3.353098 33.470312 0.93793
2005-01-25 15:53:56 51°11.131 2°43.149 6.3199 3.342776 33.388688 0.97164
2005-01-25 15:54:56 51°11.17 2°43.349 6.2943 3.330664 33.285434 0.870512
2005-01-25 15:55:57 51°11.212 2°43.533 6.2753 3.325293 33.255161 0.836802
2005-01-25 15:56:57 51°11.251 2°43.71 6.254 3.320237 33.218315 0.836802
2005-01-25 15:57:57 51°11.304 2°43.945 6.2336 3.314445 33.171585 0.803093
2005-01-25 15:58:56 51°11.38 2°44.254 6.2199 3.309284 33.128499 0.904221
2005-01-25 15:59:57 51°11.459 2°44.575 6.1893 3.300648 33.052635 1.072768
2005-01-25 16:00:57 51°11.533 2°44.894 6.1643 3.293592 32.995932 1.072768
2005-01-25 16:01:56 51°11.608 2°45.207 6.126 3.280744 32.894768 1.005349
2005-01-25 16:02:57 51°11.685 2°45.529 6.0763 3.274215 32.852093 1.005349
2005-01-25 16:03:56 51°11.757 2°45.841 6.0089 3.254311 32.678765 1.106477
2005-01-25 16:04:56 51°11.832 2°46.155 5.9185 3.229459 32.487965 1.207606
2005-01-25 16:05:56 51°11.907 2°46.472 5.8904 3.21419 32.366368 1.275024
2005-01-25 16:06:57 51°11.983 2°46.798 5.8832 3.207451 32.316704 1.443571
2005-01-25 16:07:56 51°12.059 2°47.111 5.8539 3.201975 32.270401 1.409862
2005-01-25 16:08:56 51°12.134 2°47.432 5.8213 3.19134 32.182064 1.409862
2005-01-25 16:09:56 51°12.209 2°47.748 5.8099 3.183969 32.124352 1.612118
2005-01-25 16:10:57 51°12.284 2°48.068 5.7844 3.175124 32.044374 1.713247
2005-01-25 16:11:57 51°12.356 2°48.384 5.7563 3.169649 32.001187 1.746956
2005-01-25 16:12:57 51°12.43 2°48.704 5.7448 3.166911 31.989396 1.746956
2005-01-25 16:13:56 51°12.509 2°49.008 5.7249 3.161226 31.940528 1.746956
2005-01-25 16:14:56 51°12.598 2°49.317 5.6968 3.15017 31.842166 1.679537
2005-01-25 16:15:56 51°12.696 2°49.607 5.6897 3.145643 31.806181 1.645828
2005-01-25 16:16:56 51°12.799 2°49.898 5.6779 3.135219 31.707437 1.713247
2005-01-25 16:17:57 51°12.902 2°50.196 5.6597 3.132587 31.692607 1.713247
2005-01-25 16:18:57 51°13.003 2°50.489 5.6566 3.131007 31.68468 1.713247
2005-01-25 16:19:56 51°13.103 2°50.78 5.6449 3.130376 31.680857 1.746956
2005-01-25 16:20:56 51°13.208 2°51.07 5.6331 3.127112 31.652431 1.679537
2005-01-25 16:21:57 51°13.323 2°51.361 5.6195 3.125427 31.636813 1.645828
2005-01-25 16:22:56 51°13.43 2°51.643 5.6166 3.124059 31.632853 1.746956
2005-01-25 16:23:57 51°13.541 2°51.934 5.624 3.118689 31.581625 1.780665
2005-01-25 16:24:56 51°13.65 2°52.213 5.6051 3.119531 31.59512 1.746956
2005-01-25 16:25:57 51°13.763 2°52.503 5.5917 3.112793 31.527726 1.713247
2005-01-25 16:26:56 51°13.871 2°52.784 5.5864 3.112267 31.536416 1.713247
2005-01-25 16:27:56 51°13.981 2°53.071 5.5801 3.109635 31.511774 1.679537
2005-01-25 16:28:56 51°14.093 2°53.352 5.5681 3.105423 31.472662 1.679537
2005-01-25 16:29:56 51°14.187 2°53.646 5.5503 3.103212 31.454349 1.746956
2005-01-25 16:30:57 51°14.27 2°53.954 5.5398 3.093948 31.372288 1.713247
2005-01-25 16:31:56 51°14.355 2°54.245 5.4861 3.080577 31.233645 1.746956
2005-01-25 16:32:56 51°14.39 2°54.539 5.4907 3.053942 30.986287 1.746956
2005-01-25 16:33:57 51°14.381 2°54.837 5.5178 3.074892 31.211719 1.679537
2005-01-25 16:34:57 51°14.329 2°55.122 5.4572 3.082051 31.245342 1.679537
2005-01-25 16:35:57 51°14.201 2°55.345 5.4991 2.960675 29.944874 1.713247
2005-01-25 16:36:57 51°14.068 2°55.456 5.5183 2.899102 29.232716 1.409862
2005-01-25 16:37:56 51°13.949 2°55.544 5.852 0.044768 0.344575 -0.848668
2005-01-25 16:38:56 51°13.821 2°55.64 5.9743 0.39411 2.781455 -0.848668
2005-01-25 16:39:56 51°13.719 2°55.778 6.1122 0.106097 0.65042 -0.882377
2005-01-25 16:40:56 51°13.653 2°55.922 6.1943 0.07314 0.429015 -0.916087
2005-01-25 16:41:56 51°13.613 2°56.037 6.3831 0.067527 0.392187 -0.916087
2005-01-25 16:42:57 51°13.594 2°56.1 6.5437 0.065656 0.384578 -0.882377
2005-01-25 16:43:57 51°13.592 2°56.105 6.7321 0.065656 0.388775 -0.882377
2005-01-25 16:44:57 51°13.593 2°56.104 6.8232 0.066695 0.395777 -0.882377